Time;durP1;ratioP1;P1;durP2;ratioP2;P2;SDS_P1;SDS_P2;PMS_P1;PMS_P2;Temp;Humidity;BMP_temperature;BMP_pressure;BME280_temperature;BME280_humidity;BME280_pressure;Samples;Min_cycle;Max_cycle;Signal;HPM_P1;HPM_P2
2021/06/07 00:01:51;;;;;;;3.15;1.10;;;;;;;23.38;62.65;100786.13;1736701;81;22826;-62
2021/06/07 00:04:17;;;;;;;2.90;1.30;;;;;;;23.37;62.60;100788.09;1709080;83;21183;-62
2021/06/07 00:06:43;;;;;;;1.55;1.20;;;;;;;23.36;62.54;100789.80;1738613;81;20936;-62
2021/06/07 00:09:11;;;;;;;1.98;1.25;;;;;;;23.35;62.51;100790.94;1728556;81;21975;-62
2021/06/07 00:11:40;;;;;;;1.52;1.10;;;;;;;23.31;62.50;100788.03;1727505;81;22365;-63
2021/06/07 00:14:06;;;;;;;1.40;1.10;;;;;;;23.30;62.50;100781.45;1707634;83;21631;-63
2021/06/07 00:16:32;;;;;;;2.17;1.22;;;;;;;23.27;62.49;100777.36;1729861;81;21642;-62
2021/06/07 00:18:59;;;;;;;1.82;1.07;;;;;;;23.30;62.48;100777.28;1735779;81;21099;-63
2021/06/07 00:21:28;;;;;;;1.60;0.90;;;;;;;23.31;62.54;100778.31;1711413;83;20993;-62
2021/06/07 00:23:55;;;;;;;2.12;1.17;;;;;;;23.31;62.61;100776.92;1718480;82;20916;-63
2021/06/07 00:26:21;;;;;;;1.52;1.20;;;;;;;23.31;62.73;100774.15;1707272;83;21091;-62
2021/06/07 00:28:47;;;;;;;1.80;1.07;;;;;;;23.31;62.78;100771.94;1716665;82;20935;-61
2021/06/07 00:31:13;;;;;;;1.37;0.82;;;;;;;23.31;62.79;100776.11;1720014;82;21055;-61
2021/06/07 00:33:40;;;;;;;1.77;1.20;;;;;;;23.31;62.78;100775.53;1724889;82;21106;-61
2021/06/07 00:36:07;;;;;;;1.90;1.22;;;;;;;23.31;62.79;100770.55;1713533;82;21447;-62
2021/06/07 00:38:34;;;;;;;3.05;1.62;;;;;;;23.29;62.75;100770.91;1730387;81;21481;-62
2021/06/07 00:41:02;;;;;;;2.27;1.20;;;;;;;23.29;62.76;100774.26;1733107;81;21267;-62
2021/06/07 00:43:28;;;;;;;1.42;1.02;;;;;;;23.28;62.74;100783.16;1735402;81;20995;-62
2021/06/07 00:45:55;;;;;;;2.17;1.27;;;;;;;23.26;62.72;100792.38;1736100;81;21082;-62
2021/06/07 00:48:21;;;;;;;1.92;1.20;;;;;;;23.24;62.73;100780.81;1734638;81;21064;-62
2021/06/07 00:50:57;;;;;;;1.57;1.07;;;;;;;23.25;62.71;100781.63;1732762;81;22116;-61
2021/06/07 00:53:24;;;;;;;1.35;0.88;;;;;;;23.27;62.77;100783.48;1734672;81;21573;-61
2021/06/07 00:55:57;;;;;;;2.70;1.00;;;;;;;23.28;62.88;100785.12;1732944;81;21075;-62
2021/06/07 00:58:30;;;;;;;3.30;1.22;;;;;;;23.28;62.98;100783.73;1733270;81;21068;-62
2021/06/07 01:00:56;;;;;;;1.60;1.10;;;;;;;23.27;63.03;100782.91;1735526;81;21047;-62
2021/06/07 01:03:23;;;;;;;1.60;1.00;;;;;;;23.26;63.04;100779.89;1736647;81;21115;-62
2021/06/07 01:05:50;;;;;;;1.67;1.20;;;;;;;23.26;63.00;100784.05;1736732;80;21075;-62
2021/06/07 01:08:17;;;;;;;1.45;1.00;;;;;;;23.26;62.98;100775.72;1732536;81;21071;-62
2021/06/07 01:10:45;;;;;;;1.60;1.20;;;;;;;23.26;62.96;100773.52;1730134;81;21187;-62
2021/06/07 01:13:13;;;;;;;1.32;0.93;;;;;;;23.23;62.92;100768.89;1730525;81;21140;-62
2021/06/07 01:15:41;;;;;;;1.40;1.15;;;;;;;23.22;62.91;100777.55;1735270;81;21628;-63
2021/06/07 01:18:08;;;;;;;1.50;1.07;;;;;;;23.22;62.89;100773.39;1735845;81;21086;-62
2021/06/07 01:20:34;;;;;;;1.70;1.20;;;;;;;23.18;62.89;100764.11;1739048;81;21082;-63
2021/06/07 01:23:01;;;;;;;1.22;0.88;;;;;;;23.19;62.89;100763.78;1735133;81;21063;-63
2021/06/07 01:25:33;;;;;;;1.40;0.93;;;;;;;23.20;62.92;100761.83;1736152;81;21816;-63
2021/06/07 01:27:59;;;;;;;3.62;1.00;;;;;;;23.20;63.02;100764.59;1737216;81;22556;-63
2021/06/07 01:30:29;;;;;;;1.72;0.90;;;;;;;23.22;63.12;100763.67;1730292;81;21055;-63
2021/06/07 01:32:56;;;;;;;1.95;1.25;;;;;;;23.22;63.20;100763.09;1738860;81;21079;-63
2021/06/07 01:35:22;;;;;;;2.83;1.20;;;;;;;23.23;63.22;100755.59;1730688;81;21521;-62
2021/06/07 01:37:48;;;;;;;1.27;1.00;;;;;;;23.22;63.21;100749.80;1738535;81;21011;-63
2021/06/07 01:40:26;;;;;;;1.45;1.02;;;;;;;23.22;63.16;100747.02;1730292;81;21144;-63
2021/06/07 01:42:52;;;;;;;1.60;1.07;;;;;;;23.21;63.13;100750.97;1727639;81;21067;-62
2021/06/07 01:45:20;;;;;;;1.50;1.02;;;;;;;23.20;63.10;100746.55;1750983;81;21121;-62
2021/06/07 01:47:47;;;;;;;1.80;1.35;;;;;;;23.19;63.05;100750.47;1736341;81;21691;-62
2021/06/07 01:50:13;;;;;;;1.80;0.95;;;;;;;23.17;63.03;100753.58;1751120;81;21044;-62
2021/06/07 01:52:46;;;;;;;1.45;1.00;;;;;;;23.14;63.01;100751.48;1747480;81;21750;-63
2021/06/07 01:55:25;;;;;;;1.52;0.98;;;;;;;23.14;63.01;100752.05;1718697;81;21517;-62
2021/06/07 01:57:51;;;;;;;1.80;1.05;;;;;;;23.12;63.00;100749.63;1747964;81;21070;-63
2021/06/07 02:00:35;;;;;;;2.30;0.98;;;;;;;23.13;62.99;100751.80;1725979;81;21525;-62
2021/06/07 02:03:01;;;;;;;1.90;1.20;;;;;;;23.12;63.03;100752.98;1737819;81;21122;-62
2021/06/07 02:05:29;;;;;;;1.27;1.07;;;;;;;23.13;63.15;100754.58;1722199;81;21093;-63
2021/06/07 02:07:58;;;;;;;1.22;0.90;;;;;;;23.13;63.20;100751.80;1715457;81;21045;-63
2021/06/07 02:10:27;;;;;;;1.62;0.90;;;;;;;23.13;63.25;100758.74;1745699;81;21020;-62
2021/06/07 02:12:53;;;;;;;1.32;0.93;;;;;;;23.12;63.26;100758.53;1731027;81;21063;-63
2021/06/07 02:15:20;;;;;;;1.30;0.98;;;;;;;23.12;63.25;100758.53;1720863;81;21119;-63
2021/06/07 02:17:46;;;;;;;1.87;1.02;;;;;;;23.11;63.21;100759.09;1731243;81;21672;-63
2021/06/07 02:20:15;;;;;;;1.57;1.25;;;;;;;23.10;63.19;100758.03;1712307;82;21137;-62
2021/06/07 02:22:43;;;;;;;4.03;1.10;;;;;;;23.09;63.17;100759.17;1709486;81;21034;-63
2021/06/07 02:25:13;;;;;;;1.45;0.80;;;;;;;23.08;63.14;100763.13;1710270;81;21121;-63
2021/06/07 02:27:39;;;;;;;1.75;0.90;;;;;;;23.06;63.16;100759.86;1700766;82;21090;-63
2021/06/07 02:30:09;;;;;;;1.40;1.10;;;;;;;23.04;63.16;100763.56;1718599;82;20986;-63
2021/06/07 02:32:36;;;;;;;1.20;0.90;;;;;;;23.05;63.15;100770.14;1702937;82;21537;-63
2021/06/07 02:35:05;;;;;;;1.17;0.80;;;;;;;23.07;63.20;100772.59;1741977;81;20995;-63
2021/06/07 02:37:31;;;;;;;3.85;0.80;;;;;;;23.07;63.28;100764.27;1696957;82;20980;-62
2021/06/07 02:39:57;;;;;;;1.22;0.82;;;;;;;23.08;63.38;100775.05;1745768;80;20901;-61
2021/06/07 02:42:23;;;;;;;1.50;1.00;;;;;;;23.09;63.46;100768.31;1749754;81;21750;-62
2021/06/07 02:44:49;;;;;;;1.72;0.93;;;;;;;23.08;63.47;100772.27;1748379;81;21039;-61
2021/06/07 02:47:16;;;;;;;1.60;1.10;;;;;;;23.09;63.44;100784.97;1734343;81;21047;-62
2021/06/07 02:49:43;;;;;;;1.10;1.00;;;;;;;23.10;63.45;100788.56;1738960;81;21083;-60
2021/06/07 02:52:09;;;;;;;1.10;0.90;;;;;;;23.09;63.40;100785.54;1741627;80;21552;-60
2021/06/07 02:54:35;;;;;;;1.87;1.00;;;;;;;23.08;63.35;100786.14;1720095;82;23422;-59
2021/06/07 02:57:03;;;;;;;0.90;0.72;;;;;;;23.08;63.31;100782.55;1756357;80;21109;-59
2021/06/07 02:59:29;;;;;;;1.50;0.98;;;;;;;23.06;63.28;100780.09;1748641;80;20954;-60
2021/06/07 03:01:55;;;;;;;1.12;0.90;;;;;;;23.04;63.25;100779.61;1724598;82;20992;-62
2021/06/07 03:04:22;;;;;;;1.62;1.07;;;;;;;23.03;63.24;100782.73;1746384;81;20972;-61
2021/06/07 03:06:48;;;;;;;1.70;1.20;;;;;;;23.01;63.24;100781.67;1757794;80;21086;-61
2021/06/07 03:09:14;;;;;;;1.30;1.00;;;;;;;22.99;63.22;100781.20;1760418;80;21028;-61
2021/06/07 03:11:40;;;;;;;0.80;0.60;;;;;;;23.01;63.21;100786.41;1751936;80;20919;-61
2021/06/07 03:14:06;;;;;;;0.65;0.60;;;;;;;23.02;63.25;100789.42;1757862;80;21024;-60
2021/06/07 03:16:32;;;;;;;1.55;0.90;;;;;;;23.02;63.34;100786.65;1749223;80;21125;-61
2021/06/07 03:18:58;;;;;;;1.42;0.85;;;;;;;23.03;63.44;100787.72;1753247;80;21603;-61
2021/06/07 03:21:24;;;;;;;1.55;0.88;;;;;;;23.04;63.50;100786.54;1751719;80;21664;-61
2021/06/07 03:23:51;;;;;;;1.37;0.85;;;;;;;23.03;63.52;100789.10;1751018;80;21537;-60
2021/06/07 03:26:18;;;;;;;1.05;0.70;;;;;;;23.03;63.47;100789.10;1753053;81;21107;-61
2021/06/07 03:28:44;;;;;;;1.37;0.95;;;;;;;23.04;63.46;100791.30;1752837;80;22081;-61
2021/06/07 03:31:10;;;;;;;0.90;0.78;;;;;;;23.04;63.42;100787.14;1747005;80;21265;-61
2021/06/07 03:33:36;;;;;;;0.95;0.72;;;;;;;23.04;63.39;100788.53;1742812;81;20973;-61
2021/06/07 03:36:04;;;;;;;1.65;1.00;;;;;;;23.02;63.32;100793.59;1742976;80;20980;-61
2021/06/07 03:38:31;;;;;;;1.22;0.85;;;;;;;23.00;63.31;100785.59;1711051;82;21532;-61
2021/06/07 03:40:58;;;;;;;1.27;0.80;;;;;;;22.98;63.29;100792.63;1681492;83;20985;-61
2021/06/07 03:43:28;;;;;;;0.82;0.60;;;;;;;22.97;63.27;100790.42;1725655;82;21558;-61
2021/06/07 03:45:54;;;;;;;1.15;0.80;;;;;;;22.96;63.27;100792.95;1705355;82;21459;-60
2021/06/07 03:48:20;;;;;;;1.05;0.80;;;;;;;22.97;63.24;100791.81;1705519;82;20962;-60
2021/06/07 03:50:46;;;;;;;0.78;0.65;;;;;;;22.98;63.29;100795.41;1699908;82;21070;-61
2021/06/07 03:53:13;;;;;;;1.90;0.80;;;;;;;22.99;63.35;100794.27;1702633;82;21082;-61
2021/06/07 03:55:39;;;;;;;2.17;1.15;;;;;;;22.99;63.43;100801.20;1707946;82;22276;-61
2021/06/07 03:58:05;;;;;;;3.40;1.00;;;;;;;22.98;63.50;100793.45;1703834;82;21062;-60
2021/06/07 04:00:34;;;;;;;5.85;2.02;;;;;;;22.99;63.49;100795.66;1700929;82;20934;-61
2021/06/07 04:03:00;;;;;;;2.67;1.15;;;;;;;22.98;63.46;100792.06;1680747;83;21565;-61
2021/06/07 04:05:26;;;;;;;2.70;1.40;;;;;;;22.98;63.42;100792.63;1685873;83;21087;-61
2021/06/07 04:07:53;;;;;;;2.40;1.20;;;;;;;22.95;63.38;100788.58;1716270;82;21096;-60
2021/06/07 04:10:21;;;;;;;7.58;2.55;;;;;;;22.96;63.36;100792.13;1720915;82;21097;-61
2021/06/07 04:12:48;;;;;;;5.90;1.85;;;;;;;22.94;63.35;100793.88;1717710;82;21041;-61
2021/06/07 04:15:17;;;;;;;4.97;2.22;;;;;;;22.94;63.32;100790.28;1716551;82;21429;-61
2021/06/07 04:17:43;;;;;;;5.17;1.45;;;;;;;22.91;63.33;100794.55;1716107;82;21521;-60
2021/06/07 04:20:12;;;;;;;7.75;2.47;;;;;;;22.93;63.31;100793.63;1709483;82;21302;-60
2021/06/07 04:22:38;;;;;;;4.50;1.50;;;;;;;22.95;63.36;100796.08;1713650;82;21079;-61
2021/06/07 04:25:06;;;;;;;4.15;1.10;;;;;;;22.95;63.43;100796.08;1704448;84;21084;-60
2021/06/07 04:27:32;;;;;;;1.87;0.98;;;;;;;22.96;63.52;100792.95;1671203;84;21089;-61
2021/06/07 04:29:58;;;;;;;2.17;0.85;;;;;;;22.97;63.59;100796.55;1718311;82;21110;-60
2021/06/07 04:32:25;;;;;;;1.42;0.85;;;;;;;22.97;63.63;100800.14;1719321;82;21623;-60
2021/06/07 04:34:51;;;;;;;2.20;0.72;;;;;;;22.97;63.61;100804.30;1713638;82;21136;-61
2021/06/07 04:37:17;;;;;;;3.72;0.90;;;;;;;23.00;63.62;100802.84;1716729;82;21021;-59
2021/06/07 04:39:43;;;;;;;1.40;0.90;;;;;;;23.02;63.61;100804.69;1723988;81;21019;-59
2021/06/07 04:42:10;;;;;;;1.22;0.82;;;;;;;23.03;63.56;100807.70;1731706;81;20933;-59
2021/06/07 04:44:36;;;;;;;1.92;1.02;;;;;;;23.04;63.49;100795.47;1740849;81;21106;-60
2021/06/07 04:47:04;;;;;;;5.78;2.17;;;;;;;23.03;63.47;100807.70;1744549;80;21475;-60
2021/06/07 04:49:30;;;;;;;7.33;2.15;;;;;;;23.01;63.47;100809.42;1743186;80;21071;-60
2021/06/07 04:51:56;;;;;;;3.45;1.70;;;;;;;23.00;63.45;100818.88;1740110;80;21468;-59
2021/06/07 04:54:22;;;;;;;3.35;1.32;;;;;;;22.99;63.45;100813.12;1740188;80;21075;-60
2021/06/07 04:56:49;;;;;;;2.12;1.47;;;;;;;23.01;63.52;100818.31;1720475;82;21273;-60
2021/06/07 04:59:15;;;;;;;8.75;3.60;;;;;;;23.01;63.62;100819.70;1749144;81;20940;-60
2021/06/07 05:01:41;;;;;;;9.35;3.25;;;;;;;23.01;63.74;100816.36;1737442;81;21094;-61
2021/06/07 05:04:07;;;;;;;7.42;2.92;;;;;;;23.03;63.91;100816.03;1724684;82;22348;-61
2021/06/07 05:06:33;;;;;;;4.95;2.40;;;;;;;23.06;63.95;100823.68;1724525;82;21115;-61
2021/06/07 05:08:59;;;;;;;5.83;2.85;;;;;;;23.08;63.92;100822.79;1745278;81;21061;-61
2021/06/07 05:11:26;;;;;;;18.37;6.90;;;;;;;23.10;63.89;100830.19;1712017;82;21119;-60
2021/06/07 05:13:52;;;;;;;19.87;6.50;;;;;;;23.10;63.86;100826.84;1740014;80;21049;-60
2021/06/07 05:16:18;;;;;;;6.42;3.40;;;;;;;23.11;63.81;100823.50;1720184;82;21039;-59
2021/06/07 05:18:44;;;;;;;6.22;4.67;;;;;;;23.12;63.83;100833.46;1713733;82;21013;-59
2021/06/07 05:21:10;;;;;;;8.08;3.92;;;;;;;23.10;63.78;100828.80;1746399;81;21289;-59
2021/06/07 05:23:36;;;;;;;6.25;3.67;;;;;;;23.12;63.80;100823.75;1711683;81;20978;-59
2021/06/07 05:26:02;;;;;;;6.20;4.12;;;;;;;23.15;63.85;100830.83;1745049;81;21407;-59
2021/06/07 05:28:29;;;;;;;5.12;3.83;;;;;;;23.17;63.90;100831.86;1741093;81;21063;-59
2021/06/07 05:30:55;;;;;;;4.35;3.08;;;;;;;23.18;63.97;100832.11;1723636;82;20946;-59
2021/06/07 05:33:21;;;;;;;6.17;3.60;;;;;;;23.18;63.99;100834.31;1740221;80;21495;-59
2021/06/07 05:35:49;;;;;;;5.40;3.70;;;;;;;23.19;63.99;100835.12;1748451;80;21087;-59
2021/06/07 05:38:16;;;;;;;5.37;3.70;;;;;;;23.19;63.94;100844.27;1741367;81;21076;-59
2021/06/07 05:40:43;;;;;;;3.77;2.90;;;;;;;23.19;63.93;100837.91;1715552;81;21040;-59
2021/06/07 05:43:09;;;;;;;4.40;3.27;;;;;;;23.18;63.89;100841.82;1726927;81;20999;-59
2021/06/07 05:45:35;;;;;;;3.15;2.83;;;;;;;23.17;63.88;100841.57;1722772;81;21130;-59
2021/06/07 05:48:03;;;;;;;4.15;2.83;;;;;;;23.14;63.86;100843.06;1703455;81;21114;-59
2021/06/07 05:50:32;;;;;;;3.92;2.92;;;;;;;23.13;63.83;100841.43;1732733;81;20996;-59
2021/06/07 05:52:58;;;;;;;5.85;2.62;;;;;;;23.14;63.84;100843.64;1717726;82;21041;-57
2021/06/07 05:55:35;;;;;;;3.17;2.55;;;;;;;23.14;63.89;100841.68;1715829;82;21051;-59
2021/06/07 05:58:05;;;;;;;4.30;2.25;;;;;;;23.14;63.98;100836.13;1706788;82;21562;-59
2021/06/07 06:00:34;;;;;;;3.33;2.52;;;;;;;23.16;64.08;100844.13;1695562;83;21024;-58
2021/06/07 06:03:01;;;;;;;3.15;2.77;;;;;;;23.16;64.12;100841.36;1708412;82;21104;-59
2021/06/07 06:05:27;;;;;;;3.22;2.52;;;;;;;23.17;64.20;100841.57;1696989;83;21083;-59
2021/06/07 06:07:53;;;;;;;4.12;2.10;;;;;;;23.16;64.18;100838.58;1711180;81;21525;-59
2021/06/07 06:10:19;;;;;;;3.15;2.22;;;;;;;23.17;64.18;100840.19;1706608;82;21317;-59
2021/06/07 06:12:46;;;;;;;2.60;2.15;;;;;;;23.16;64.17;100837.19;1718841;82;21531;-59
2021/06/07 06:15:14;;;;;;;2.83;2.30;;;;;;;23.16;64.11;100839.97;1719958;82;21171;-58
2021/06/07 06:17:42;;;;;;;5.40;2.00;;;;;;;23.15;64.09;100834.17;1710910;82;20931;-59
2021/06/07 06:20:09;;;;;;;3.25;2.12;;;;;;;23.13;64.08;100829.52;1700001;82;21060;-59
2021/06/07 06:22:36;;;;;;;2.30;1.82;;;;;;;23.11;64.09;100833.22;1714007;82;21104;-59
2021/06/07 06:25:06;;;;;;;1.67;1.55;;;;;;;23.11;64.07;100830.44;1707577;83;20996;-59
2021/06/07 06:27:32;;;;;;;2.40;1.67;;;;;;;23.11;64.14;100834.03;1710986;83;21464;-59
2021/06/07 06:29:58;;;;;;;2.00;1.80;;;;;;;23.11;64.20;100826.27;1719503;82;20997;-59
2021/06/07 06:32:24;;;;;;;2.00;1.67;;;;;;;23.11;64.29;100825.70;1718500;82;21042;-59
2021/06/07 06:34:51;;;;;;;3.20;1.67;;;;;;;23.12;64.36;100827.91;1692127;83;21066;-59
2021/06/07 06:37:17;;;;;;;2.60;1.70;;;;;;;23.12;64.37;100828.73;1735811;81;21426;-59
2021/06/07 06:39:43;;;;;;;1.67;1.55;;;;;;;23.13;64.38;100830.90;1719278;80;20905;-59
2021/06/07 06:42:10;;;;;;;1.77;1.52;;;;;;;23.12;64.36;100827.91;1750815;81;21060;-59
2021/06/07 06:44:37;;;;;;;3.08;1.57;;;;;;;23.12;64.34;100836.23;1739045;80;21067;-59
2021/06/07 06:47:04;;;;;;;2.42;1.77;;;;;;;23.10;64.29;100832.39;1753390;80;22122;-59
2021/06/07 06:49:30;;;;;;;2.02;1.55;;;;;;;23.09;64.26;100836.87;1747954;80;21016;-59
2021/06/07 06:51:59;;;;;;;2.25;1.42;;;;;;;23.07;64.23;100835.84;1744452;80;32507;-59
2021/06/07 06:54:26;;;;;;;1.42;1.32;;;;;;;23.05;64.22;100832.58;1748236;80;21498;-59
2021/06/07 06:56:53;;;;;;;1.77;1.32;;;;;;;23.04;64.19;100839.27;1752556;80;21008;-60
2021/06/07 06:59:19;;;;;;;1.45;1.30;;;;;;;23.05;64.18;100838.70;1749038;80;21115;-60
2021/06/07 07:01:45;;;;;;;1.77;1.12;;;;;;;23.06;64.21;100838.38;1751549;80;21501;-60
2021/06/07 07:04:11;;;;;;;1.10;1.00;;;;;;;23.08;64.29;100843.60;1746664;80;21068;-60
2021/06/07 07:06:37;;;;;;;2.42;1.30;;;;;;;23.07;64.38;100840.01;1736770;81;21158;-60
2021/06/07 07:09:05;;;;;;;1.35;1.05;;;;;;;23.09;64.46;100836.87;1733297;81;21044;-60
2021/06/07 07:11:31;;;;;;;1.30;1.12;;;;;;;23.09;64.49;100836.31;1732580;81;21716;-60
2021/06/07 07:13:57;;;;;;;2.33;1.40;;;;;;;23.10;64.49;100834.35;1720288;82;21068;-59
2021/06/07 07:16:24;;;;;;;1.05;0.98;;;;;;;23.10;64.42;100835.74;1738421;81;21019;-60
2021/06/07 07:18:50;;;;;;;1.77;1.22;;;;;;;23.09;64.36;100837.70;1732300;81;21035;-60
2021/06/07 07:21:16;;;;;;;1.37;1.07;;;;;;;23.09;64.31;100830.76;1726407;82;20997;-60
2021/06/07 07:23:42;;;;;;;1.45;1.30;;;;;;;23.08;64.25;100830.55;1718129;81;21521;-60
2021/06/07 07:26:08;;;;;;;1.95;1.00;;;;;;;23.07;64.23;100837.80;1718129;82;20889;-59
2021/06/07 07:28:34;;;;;;;1.12;1.00;;;;;;;23.05;64.22;100837.31;1728999;82;20940;-60
2021/06/07 07:31:00;;;;;;;1.30;1.10;;;;;;;23.03;64.19;100834.89;1740663;81;21646;-60
2021/06/07 07:33:26;;;;;;;1.30;0.80;;;;;;;23.02;64.15;100829.09;1718321;82;20993;-60
2021/06/07 07:35:52;;;;;;;2.33;0.90;;;;;;;23.03;64.13;100837.66;1745021;81;21066;-60
2021/06/07 07:38:18;;;;;;;1.60;0.90;;;;;;;23.05;64.17;100841.47;1744446;81;21415;-60
2021/06/07 07:40:46;;;;;;;1.30;1.00;;;;;;;23.05;64.24;100842.29;1747530;81;21051;-60
2021/06/07 07:43:12;;;;;;;1.25;0.90;;;;;;;23.06;64.32;100841.15;1728670;81;20996;-60
2021/06/07 07:45:39;;;;;;;0.90;0.80;;;;;;;23.08;64.37;100833.89;1738264;81;20900;-60
2021/06/07 07:48:07;;;;;;;1.15;0.90;;;;;;;23.07;64.37;100835.84;1760124;81;21220;-60
2021/06/07 07:50:33;;;;;;;1.12;0.98;;;;;;;23.08;64.33;100837.48;1729688;81;20968;-59
2021/06/07 07:53:00;;;;;;;1.12;0.75;;;;;;;23.09;64.30;100832.72;1726315;81;21095;-60
2021/06/07 07:55:31;;;;;;;1.02;0.70;;;;;;;23.09;64.24;100829.38;1738481;81;21355;-60
2021/06/07 07:57:59;;;;;;;2.30;0.80;;;;;;;23.07;64.19;100834.46;1727443;80;21096;-60
2021/06/07 08:00:28;;;;;;;1.20;0.82;;;;;;;23.06;64.13;100827.27;1729840;80;21563;-60
2021/06/07 08:02:54;;;;;;;1.07;0.90;;;;;;;23.05;64.12;100830.37;1753041;81;21485;-60
2021/06/07 08:05:20;;;;;;;1.50;1.20;;;;;;;23.03;64.08;100829.34;1744305;80;20965;-60
2021/06/07 08:07:46;;;;;;;0.70;0.70;;;;;;;23.02;64.04;100831.05;1753835;80;21127;-60
2021/06/07 08:10:13;;;;;;;0.90;0.70;;;;;;;23.02;64.02;100838.80;1735707;81;21505;-60
2021/06/07 08:12:40;;;;;;;1.25;0.70;;;;;;;23.04;64.04;100828.77;1741602;81;21278;-60
2021/06/07 08:15:08;;;;;;;0.93;0.80;;;;;;;23.06;64.10;100833.39;1731490;81;21577;-60
2021/06/07 08:17:35;;;;;;;0.60;0.60;;;;;;;23.07;64.17;100832.25;1750843;80;21093;-60
2021/06/07 08:20:04;;;;;;;1.12;0.82;;;;;;;23.06;64.25;100824.50;1745275;80;21121;-59
2021/06/07 08:22:31;;;;;;;0.77;0.70;;;;;;;23.07;64.26;100827.52;1747916;81;21080;-60
2021/06/07 08:24:57;;;;;;;0.82;0.65;;;;;;;23.07;64.24;100836.41;1728662;81;21155;-60
2021/06/07 08:27:23;;;;;;;0.90;0.90;;;;;;;23.07;64.18;100833.08;1728805;81;21056;-60
2021/06/07 08:29:49;;;;;;;1.05;0.70;;;;;;;23.08;64.14;100829.73;1751021;81;20944;-60
2021/06/07 08:32:17;;;;;;;1.12;0.78;;;;;;;23.08;64.08;100831.11;1750227;80;20959;-59
2021/06/07 08:34:43;;;;;;;0.62;0.60;;;;;;;23.07;64.05;100830.30;1749302;80;21549;-60
2021/06/07 08:37:09;;;;;;;1.27;0.60;;;;;;;23.09;63.98;100828.55;1750415;80;21431;-60
2021/06/07 08:39:36;;;;;;;1.15;0.80;;;;;;;23.09;63.95;100831.33;1737358;80;21526;-60
2021/06/07 08:42:03;;;;;;;0.70;0.65;;;;;;;23.09;63.92;100834.11;1750463;81;20890;-60
2021/06/07 08:44:29;;;;;;;0.68;0.65;;;;;;;23.10;63.88;100838.52;1742131;80;21017;-60
2021/06/07 08:46:56;;;;;;;0.90;0.70;;;;;;;23.11;63.80;100835.98;1731202;80;21146;-60
2021/06/07 08:49:23;;;;;;;0.95;0.80;;;;;;;23.13;63.83;100835.06;1731479;80;21546;-60
2021/06/07 08:51:50;;;;;;;0.88;0.78;;;;;;;23.15;63.88;100828.05;1752108;81;21008;-60
2021/06/07 08:54:16;;;;;;;1.15;0.80;;;;;;;23.16;63.94;100831.64;1751681;81;21452;-60
2021/06/07 08:56:43;;;;;;;1.90;0.70;;;;;;;23.16;63.95;100828.87;1733352;80;21025;-60
2021/06/07 08:59:11;;;;;;;0.90;0.78;;;;;;;23.17;63.93;100822.96;1740257;81;21573;-60
2021/06/07 09:01:38;;;;;;;1.17;0.90;;;;;;;23.18;63.89;100823.20;1737882;81;21470;-60
2021/06/07 09:04:14;;;;;;;1.22;0.80;;;;;;;23.19;63.82;100822.64;1734838;81;21415;-60
2021/06/07 09:06:42;;;;;;;1.27;1.02;;;;;;;23.18;63.78;100819.05;1732277;81;21073;-60
2021/06/07 09:09:10;;;;;;;1.15;0.80;;;;;;;23.17;63.69;100824.34;1739238;81;20916;-60
2021/06/07 09:12:00;;;;;;;0.90;0.70;;;;;;;23.17;63.65;100821.58;1756826;80;21048;-60
2021/06/07 09:14:33;;;;;;;1.60;0.98;;;;;;;23.17;63.62;100815.20;1739500;81;21071;-62
2021/06/07 09:17:00;;;;;;;1.20;0.90;;;;;;;23.15;63.59;100815.56;1716704;82;21726;-61
2021/06/07 09:19:28;;;;;;;1.12;0.80;;;;;;;23.14;63.55;100816.70;1741690;81;21032;-61
2021/06/07 09:21:58;;;;;;;1.77;0.80;;;;;;;23.16;63.52;100814.99;1745131;80;21357;-61
2021/06/07 09:24:24;;;;;;;1.53;0.70;;;;;;;23.18;63.54;100814.06;1732853;81;21181;-61
2021/06/07 09:26:50;;;;;;;0.60;0.50;;;;;;;23.19;63.61;100810.15;1743258;81;22333;-60
2021/06/07 09:29:31;;;;;;;1.30;0.60;;;;;;;23.20;63.68;100802.06;1749066;81;20956;-60
2021/06/07 09:31:58;;;;;;;0.98;0.70;;;;;;;23.22;63.76;100806.70;1758471;81;21048;-61
2021/06/07 09:34:29;;;;;;;0.55;0.55;;;;;;;23.23;63.76;100804.16;1760229;80;21063;-61
2021/06/07 09:36:57;;;;;;;0.75;0.60;;;;;;;23.25;63.72;100794.13;1731814;80;21008;-60
2021/06/07 09:39:27;;;;;;;0.82;0.70;;;;;;;23.24;63.68;100794.70;1744158;81;21246;-60
2021/06/07 09:42:13;;;;;;;0.75;0.60;;;;;;;23.26;63.62;100791.56;1737567;80;21110;-61
2021/06/07 09:44:58;;;;;;;0.60;0.50;;;;;;;23.26;63.57;100792.38;1756588;81;20967;-60
2021/06/07 09:47:35;;;;;;;0.95;0.70;;;;;;;23.28;63.50;100792.87;1756363;80;21059;-60
2021/06/07 09:50:06;;;;;;;1.05;0.80;;;;;;;23.29;63.45;100790.91;1749845;80;21629;-60
2021/06/07 09:52:53;;;;;;;1.02;0.62;;;;;;;23.29;63.41;100787.57;1734052;81;21503;-60
2021/06/07 09:55:18;;;;;;;0.90;0.62;;;;;;;23.30;63.36;100789.77;1731062;81;20948;-61
2021/06/07 09:58:06;;;;;;;1.12;0.62;;;;;;;23.29;63.30;100785.36;1739899;80;21517;-61
2021/06/07 10:00:47;;;;;;;0.60;0.50;;;;;;;23.30;63.27;100777.28;1749242;81;21039;-60
2021/06/07 10:03:23;;;;;;;0.70;0.68;;;;;;;23.31;63.28;100788.03;1739661;80;20946;-61
2021/06/07 10:05:56;;;;;;;0.80;0.50;;;;;;;23.33;63.34;100788.52;1736996;81;21776;-61
2021/06/07 10:08:23;;;;;;;1.12;0.65;;;;;;;23.35;63.43;100783.43;1717438;82;20975;-61
2021/06/07 10:10:50;;;;;;;0.72;0.50;;;;;;;23.35;63.42;100781.22;1746749;81;20953;-61
2021/06/07 10:13:16;;;;;;;0.90;0.60;;;;;;;23.38;63.42;100777.80;1718624;82;21162;-61
2021/06/07 10:15:45;;;;;;;0.82;0.60;;;;;;;23.39;63.35;100777.44;1744679;81;21487;-61
2021/06/07 10:18:15;;;;;;;0.80;0.57;;;;;;;23.41;63.27;100777.11;1719337;82;21106;-61
2021/06/07 10:23:25;;;;;;;1.07;0.60;;;;;;;23.42;63.17;100773.19;1744095;81;21067;-61
2021/06/07 10:25:53;;;;;;;1.00;0.60;;;;;;;23.42;63.10;100763.48;1746554;80;21059;-61
2021/06/07 10:28:25;;;;;;;0.90;0.65;;;;;;;23.42;63.02;100767.06;1740133;81;21067;-61
2021/06/07 10:30:51;;;;;;;0.50;0.47;;;;;;;23.42;63.00;100764.29;1736951;81;21750;-61
2021/06/07 10:33:29;;;;;;;1.02;0.68;;;;;;;23.43;62.95;100753.43;1739934;81;21079;-61
2021/06/07 10:35:57;;;;;;;0.45;0.45;;;;;;;23.46;62.92;100762.50;1731813;80;21058;-60
2021/06/07 10:38:34;;;;;;;0.45;0.42;;;;;;;23.50;62.85;100760.67;1754615;80;20991;-59
2021/06/07 10:41:25;;;;;;;1.42;0.40;;;;;;;23.53;62.87;100755.81;1745310;81;21588;-60
2021/06/07 10:43:54;;;;;;;0.90;0.62;;;;;;;23.56;62.89;100757.91;1714658;82;22463;-60
2021/06/07 10:46:35;;;;;;;0.90;0.60;;;;;;;23.60;62.94;100749.13;1741922;81;21062;-60
2021/06/07 10:49:02;;;;;;;1.00;0.60;;;;;;;23.66;62.94;100740.03;1717524;82;21123;-60
2021/06/07 10:51:31;;;;;;;0.98;0.50;;;;;;;23.73;62.89;100747.80;1733147;81;21884;-60
2021/06/07 10:54:37;;;;;;;0.85;0.60;;;;;;;23.75;62.78;100741.34;1712440;82;21557;-61
2021/06/07 10:57:40;;;;;;;0.85;0.55;;;;;;;23.75;62.63;100737.98;1683104;83;21031;-60
2021/06/07 11:00:23;;;;;;;0.70;0.45;;;;;;;23.76;62.55;100729.91;1675331;84;21032;-61
2021/06/07 11:02:51;;;;;;;0.55;0.53;;;;;;;23.77;62.46;100730.11;1717403;81;21011;-61
2021/06/07 11:05:27;;;;;;;0.40;0.40;;;;;;;23.79;62.39;100731.17;1720292;82;21110;-60
2021/06/07 11:08:28;;;;;;;0.55;0.50;;;;;;;23.77;62.33;100723.74;1749123;81;21075;-61
2021/06/07 11:11:14;;;;;;;0.55;0.47;;;;;;;23.77;62.30;100725.95;1759050;80;21529;-61
2021/06/07 11:13:50;;;;;;;0.65;0.50;;;;;;;23.77;62.23;100725.95;1752034;80;21031;-59
2021/06/07 11:16:34;;;;;;;0.70;0.60;;;;;;;23.75;62.18;100712.17;1721386;82;21028;-59
2021/06/07 11:19:07;;;;;;;0.70;0.50;;;;;;;23.77;62.17;100714.02;1738887;81;21165;-61
2021/06/07 11:21:56;;;;;;;0.70;0.50;;;;;;;23.77;62.21;100713.45;1720830;82;21324;-60
2021/06/07 11:24:37;;;;;;;0.90;0.60;;;;;;;23.79;62.28;100710.34;1735510;80;23168;-60
2021/06/07 11:27:05;;;;;;;0.88;0.60;;;;;;;23.80;62.39;100713.36;1702962;82;21438;-60
2021/06/07 11:29:32;;;;;;;0.60;0.40;;;;;;;23.79;62.40;100706.98;1744571;80;21410;-60
2021/06/07 11:32:10;;;;;;;0.80;0.50;;;;;;;23.81;62.39;100706.62;1749987;81;21004;-60
2021/06/07 11:34:46;;;;;;;0.50;0.40;;;;;;;23.82;62.33;100704.09;1731810;81;21056;-60